createdAt,value
2023-04-02T00:00:12.712Z,4.20
2023-04-02T00:03:04.047Z,3.40
2023-04-02T00:05:52.595Z,4.80
2023-04-02T00:08:25.262Z,4.80
2023-04-02T00:11:02.754Z,3.00
2023-04-02T00:13:37.315Z,4.90
2023-04-02T00:16:08.583Z,2.90
2023-04-02T00:18:42.844Z,5.80
2023-04-02T00:21:19.815Z,3.50
2023-04-02T00:23:48.003Z,5.30
2023-04-02T00:26:50.172Z,3.40
2023-04-02T00:29:19.871Z,2.70
2023-04-02T00:31:50.372Z,4.80
2023-04-02T00:34:23.076Z,4.70
2023-04-02T00:36:53.715Z,3.50
2023-04-02T00:39:28.637Z,3.40
2023-04-02T00:42:05.332Z,2.00
2023-04-02T00:44:42.952Z,3.10
2023-04-02T00:47:21.402Z,3.40
2023-04-02T00:50:12.537Z,2.10
2023-04-02T00:52:43.313Z,2.90
2023-04-02T00:55:14.507Z,1.90
2023-04-02T00:57:45.041Z,13.80
2023-04-02T01:00:29.397Z,5.90
2023-04-02T01:03:16.872Z,3.70
2023-04-02T01:06:03.748Z,3.40
2023-04-02T01:08:37.898Z,3.70
2023-04-02T01:12:13.970Z,2.50
2023-04-02T01:14:49.459Z,4.50
2023-04-02T01:17:33.062Z,2.80
2023-04-02T01:20:36.794Z,2.80
2023-04-02T01:23:17.187Z,1.60
2023-04-02T01:26:08.267Z,5.10
2023-04-02T01:29:02.758Z,4.10
2023-04-02T01:31:33.563Z,2.40
2023-04-02T01:34:03.904Z,4.80
2023-04-02T01:36:50.310Z,2.50
2023-04-02T01:39:27.080Z,2.90
2023-04-02T01:42:22.710Z,6.90
2023-04-02T01:44:53.947Z,2.70
2023-04-02T01:47:28.924Z,3.10
2023-04-02T01:50:21.238Z,4.90
2023-04-02T01:52:56.271Z,4.80
2023-04-02T01:55:48.955Z,6.00
2023-04-02T01:58:26.341Z,3.90
2023-04-02T02:01:27.941Z,2.80
2023-04-02T02:03:56.326Z,4.30
2023-04-02T02:06:24.899Z,4.30
2023-04-02T02:09:05.146Z,4.40
2023-04-02T02:11:34.146Z,4.20
2023-04-02T02:14:12.198Z,4.40
2023-04-02T02:16:44.040Z,3.50
2023-04-02T02:19:31.336Z,5.90
2023-04-02T02:22:19.807Z,4.70
2023-04-02T02:24:49.085Z,5.30
2023-04-02T02:27:23.208Z,2.30
2023-04-02T02:29:55.626Z,2.90
2023-04-02T02:32:29.877Z,3.00
2023-04-02T02:35:11.415Z,3.80
2023-04-02T02:37:47.989Z,3.80
2023-04-02T02:40:27.703Z,4.10
2023-04-02T02:42:59.955Z,3.80
2023-04-02T02:45:34.119Z,4.10
2023-04-02T02:48:04.932Z,4.10
2023-04-02T02:50:33.976Z,3.70
2023-04-02T02:53:07.905Z,4.50
2023-04-02T02:58:26.440Z,4.60
2023-04-02T03:01:01.872Z,3.90
2023-04-02T03:03:34.384Z,4.40
2023-04-02T03:06:08.618Z,2.30
2023-04-02T03:08:46.598Z,3.20
2023-04-02T03:11:35.356Z,2.80
2023-04-02T03:14:29.568Z,3.70
2023-04-02T03:17:21.790Z,4.20
2023-04-02T03:19:55.296Z,2.20
2023-04-02T03:22:41.631Z,5.10
2023-04-02T03:25:50.006Z,2.60
2023-04-02T03:28:27.505Z,2.90
2023-04-02T03:31:02.358Z,1.60
2023-04-02T03:33:36.528Z,2.70
2023-04-02T03:36:23.280Z,3.80
2023-04-02T03:39:00.419Z,4.00
2023-04-02T03:42:06.647Z,2.90
2023-04-02T03:44:39.604Z,3.60
2023-04-02T03:47:19.001Z,3.50
2023-04-02T03:50:11.862Z,6.90
2023-04-02T03:52:41.460Z,4.50
2023-04-02T03:55:20.931Z,3.10
2023-04-02T03:57:55.257Z,3.20
2023-04-02T04:00:37.316Z,3.10
2023-04-02T04:03:19.003Z,2.70
2023-04-02T04:05:57.623Z,6.50
2023-04-02T04:08:34.401Z,5.90
2023-04-02T04:11:09.274Z,4.00
2023-04-02T04:13:47.437Z,3.00
2023-04-02T04:16:26.578Z,4.60
2023-04-02T04:19:09.456Z,3.80
2023-04-02T04:21:37.816Z,3.20
2023-04-02T04:24:27.153Z,4.00
2023-04-02T04:27:21.718Z,2.90
2023-04-02T04:30:36.290Z,4.50
2023-04-02T04:33:26.159Z,3.30
2023-04-02T04:36:01.890Z,5.70
2023-04-02T04:38:39.192Z,6.70
2023-04-02T04:41:24.504Z,3.40
2023-04-02T04:44:18.430Z,4.80
2023-04-02T04:47:32.158Z,3.60
2023-04-02T04:50:14.705Z,2.30
2023-04-02T04:55:45.851Z,3.20
2023-04-02T04:58:23.272Z,3.60
2023-04-02T05:00:55.631Z,5.10
2023-04-02T05:03:38.959Z,3.50
2023-04-02T05:06:39.124Z,4.00
2023-04-02T05:09:22.751Z,2.50
2023-04-02T05:12:07.888Z,2.70
2023-04-02T05:14:42.699Z,3.10
2023-04-02T05:17:21.796Z,2.60
2023-04-02T05:20:01.074Z,3.20
2023-04-02T05:22:40.202Z,3.10
2023-04-02T05:25:25.774Z,3.30
2023-04-02T05:28:00.516Z,4.00
2023-04-02T05:30:28.689Z,2.30
2023-04-02T05:33:00.655Z,2.90
2023-04-02T05:35:34.569Z,3.20
2023-04-02T05:38:06.727Z,3.40
2023-04-02T05:40:41.042Z,1.80
2023-04-02T05:43:15.045Z,3.50
2023-04-02T05:45:52.028Z,4.00
2023-04-02T05:48:28.241Z,2.60
2023-04-02T05:50:59.036Z,4.10
2023-04-02T05:53:36.946Z,4.00
2023-04-02T05:56:28.452Z,4.00
2023-04-02T05:59:11.670Z,2.60
2023-04-02T06:01:49.623Z,3.20
2023-04-02T06:04:34.745Z,3.40
2023-04-02T06:07:16.029Z,4.60
2023-04-02T06:10:24.808Z,6.10
2023-04-02T06:13:03.767Z,4.60
2023-04-02T06:15:37.680Z,4.00
2023-04-02T06:18:20.186Z,3.80
2023-04-02T06:20:49.481Z,5.00
2023-04-02T06:23:30.893Z,5.40
2023-04-02T06:26:00.789Z,4.80
2023-04-02T06:28:52.817Z,5.30
2023-04-02T06:31:25.414Z,4.90
2023-04-02T06:33:56.518Z,4.80
2023-04-02T06:39:07.034Z,4.00
2023-04-02T06:41:35.491Z,4.30
2023-04-02T06:44:38.367Z,5.20
2023-04-02T06:47:24.474Z,4.40
2023-04-02T06:50:02.471Z,4.40
2023-04-02T06:52:40.481Z,3.60
2023-04-02T06:55:44.395Z,4.30
2023-04-02T06:58:14.692Z,5.00
2023-04-02T07:00:46.135Z,4.20
2023-04-02T07:03:22.123Z,3.80
2023-04-02T07:05:50.607Z,5.20
2023-04-02T07:08:18.887Z,8.70
2023-04-02T07:10:47.864Z,6.00
2023-04-02T07:13:18.857Z,6.80
2023-04-02T07:15:50.430Z,5.40
2023-04-02T07:18:42.197Z,7.90
2023-04-02T07:21:11.076Z,6.70
2023-04-02T07:23:39.655Z,11.10
2023-04-02T07:26:09.555Z,5.30
2023-04-02T07:28:37.532Z,4.30
2023-04-02T07:31:19.274Z,5.70
2023-04-02T07:33:47.373Z,5.50
2023-04-02T07:36:18.384Z,3.70
2023-04-02T07:38:46.976Z,3.30
2023-04-02T07:41:16.295Z,5.10
2023-04-02T07:43:44.495Z,4.80
2023-04-02T07:46:16.736Z,5.40
2023-04-02T07:48:45.333Z,8.90
2023-04-02T07:51:23.134Z,5.80
2023-04-02T07:53:55.662Z,4.60
2023-04-02T07:56:25.451Z,4.10
2023-04-02T07:58:53.505Z,6.00
2023-04-02T08:01:26.731Z,3.90
2023-04-02T08:03:56.690Z,5.00
2023-04-02T08:06:25.976Z,5.80
2023-04-02T08:08:54.382Z,5.60
2023-04-02T08:11:22.377Z,5.90
2023-04-02T08:13:50.732Z,4.00
2023-04-02T08:16:18.771Z,5.10
2023-04-02T08:18:47.978Z,4.70
2023-04-02T08:21:16.741Z,5.60
2023-04-02T08:23:45.354Z,4.40
2023-04-02T08:26:18.893Z,4.60
2023-04-02T08:28:47.145Z,4.60
2023-04-02T08:31:15.444Z,5.50
2023-04-02T08:33:43.701Z,6.60
2023-04-02T08:36:19.226Z,3.90
2023-04-02T08:38:47.611Z,6.10
2023-04-02T08:41:27.713Z,5.10
2023-04-02T08:44:16.321Z,5.30
2023-04-02T08:46:52.209Z,4.50
2023-04-02T08:49:32.402Z,4.00
2023-04-02T08:52:01.118Z,4.00
2023-04-02T08:54:34.338Z,5.50
2023-04-02T08:57:36.218Z,4.40
2023-04-02T09:00:10.338Z,4.10
2023-04-02T09:02:43.682Z,3.70
2023-04-02T09:05:23.927Z,5.00
2023-04-02T09:07:54.357Z,4.80
2023-04-02T09:10:31.863Z,6.20
2023-04-02T09:13:01.556Z,5.30
2023-04-02T09:15:36.117Z,4.00
2023-04-02T09:18:16.864Z,3.50
2023-04-02T09:20:46.131Z,4.40
2023-04-02T09:23:19.795Z,4.30
2023-04-02T09:26:03.605Z,4.50
2023-04-02T09:28:32.913Z,3.60
2023-04-02T09:31:27.099Z,2.70
2023-04-02T09:33:55.244Z,2.30
2023-04-02T09:36:26.770Z,4.20
2023-04-02T09:39:07.074Z,4.30
2023-04-02T09:41:37.168Z,2.90
2023-04-02T09:44:13.044Z,3.20
2023-04-02T09:47:23.215Z,4.20
2023-04-02T09:49:52.187Z,5.80
2023-04-02T09:52:26.763Z,5.50
2023-04-02T09:55:15.560Z,3.10
2023-04-02T09:57:44.068Z,3.70
2023-04-02T10:00:32.562Z,5.40
2023-04-02T10:03:23.402Z,6.50
2023-04-02T10:06:13.559Z,3.70
2023-04-02T10:08:44.107Z,3.40
2023-04-02T10:11:17.302Z,6.20
2023-04-02T10:14:01.439Z,3.40
2023-04-02T10:16:40.798Z,3.50
2023-04-02T10:19:26.578Z,2.30
2023-04-02T10:21:56.712Z,3.10
2023-04-02T10:24:28.331Z,2.60
2023-04-02T10:27:02.761Z,2.50
2023-04-02T10:29:39.954Z,2.60
2023-04-02T10:32:23.377Z,4.80
2023-04-02T10:35:03.373Z,2.60
2023-04-02T10:37:43.347Z,2.60
2023-04-02T10:40:17.481Z,3.90
2023-04-02T10:42:51.914Z,2.90
2023-04-02T10:45:42.602Z,3.40
2023-04-02T10:48:42.759Z,4.30
2023-04-02T10:51:28.534Z,3.10
2023-04-02T10:54:17.578Z,3.20
2023-04-02T10:56:51.059Z,4.20
2023-04-02T10:59:32.524Z,4.30
2023-04-02T11:02:04.056Z,2.90
2023-04-02T11:04:44.270Z,3.50
2023-04-02T11:07:23.667Z,2.70
2023-04-02T11:09:56.458Z,2.40
2023-04-02T11:12:46.698Z,4.50
2023-04-02T11:15:20.011Z,3.20
2023-04-02T11:17:48.710Z,2.90
2023-04-02T11:20:47.748Z,1.30
2023-04-02T11:23:19.144Z,2.30
2023-04-02T11:25:47.903Z,2.70
2023-04-02T11:28:25.786Z,4.20
2023-04-02T11:30:54.999Z,3.40
2023-04-02T11:33:39.184Z,2.90
2023-04-02T11:36:48.982Z,2.30
2023-04-02T11:39:54.114Z,1.60
2023-04-02T11:42:26.485Z,2.70
2023-04-02T11:44:55.687Z,1.90
2023-04-02T11:47:25.938Z,5.20
2023-04-02T11:50:04.401Z,2.60
2023-04-02T11:52:49.901Z,1.80
2023-04-02T11:55:25.242Z,1.30
2023-04-02T11:58:09.807Z,1.90
2023-04-02T12:01:18.617Z,1.50
2023-04-02T12:03:52.753Z,3.00
2023-04-02T12:06:55.109Z,2.90
2023-04-02T12:09:31.058Z,2.60
2023-04-02T12:12:02.219Z,2.30
2023-04-02T12:14:43.294Z,1.80
2023-04-02T12:17:31.715Z,1.80
2023-04-02T12:20:08.417Z,1.70
2023-04-02T12:22:41.293Z,2.10
2023-04-02T12:25:24.679Z,1.80
2023-04-02T12:28:20.136Z,2.20
2023-04-02T12:30:50.045Z,4.80
2023-04-02T12:33:30.859Z,1.70
2023-04-02T12:36:01.448Z,2.30
2023-04-02T12:38:33.508Z,1.40
2023-04-02T12:41:05.401Z,3.40
2023-04-02T12:46:05.835Z,1.80
2023-04-02T12:48:35.440Z,1.30
2023-04-02T12:51:04.711Z,2.10
2023-04-02T12:53:41.486Z,2.00
2023-04-02T12:56:21.451Z,2.60
2023-04-02T12:58:55.743Z,2.30
2023-04-02T13:01:27.729Z,1.70
2023-04-02T13:06:33.364Z,1.70
2023-04-02T13:09:04.266Z,1.50
2023-04-02T13:11:39.969Z,1.20
2023-04-02T13:14:18.412Z,1.60
2023-04-02T13:16:47.030Z,2.20
2023-04-02T13:19:17.808Z,1.20
2023-04-02T13:21:46.193Z,1.50
2023-04-02T13:24:18.561Z,1.60
2023-04-02T13:26:49.646Z,1.80
2023-04-02T13:29:17.974Z,1.80
2023-04-02T13:31:46.252Z,2.50
2023-04-02T13:34:14.908Z,1.70
2023-04-02T13:36:42.904Z,1.30
2023-04-02T13:39:11.178Z,3.60
2023-04-02T13:41:48.665Z,1.70
2023-04-02T13:44:29.398Z,1.90
2023-04-02T13:46:58.730Z,1.90
2023-04-02T13:49:27.869Z,3.00
2023-04-02T13:51:59.195Z,3.10
2023-04-02T13:54:51.523Z,1.40
2023-04-02T13:59:47.427Z,1.60
2023-04-02T14:02:18.890Z,1.60
2023-04-02T14:04:51.113Z,2.50
2023-04-02T14:07:57.716Z,3.00
2023-04-02T14:10:44.029Z,2.20
2023-04-02T14:13:31.163Z,2.50
2023-04-02T14:15:59.116Z,1.60
2023-04-02T14:18:33.137Z,1.40
2023-04-02T14:21:19.734Z,2.40
2023-04-02T14:24:04.708Z,4.70
2023-04-02T14:27:08.207Z,4.30
2023-04-02T14:29:45.594Z,1.80
2023-04-02T14:32:44.752Z,1.70
2023-04-02T14:35:28.348Z,2.20
2023-04-02T14:38:24.161Z,2.40
2023-04-02T14:40:55.089Z,1.80
2023-04-02T14:43:45.378Z,2.70
2023-04-02T14:46:13.918Z,2.60
2023-04-02T14:48:54.490Z,2.30
2023-04-02T14:51:40.929Z,2.50
2023-04-02T14:54:12.887Z,2.80
2023-04-02T14:57:12.931Z,2.90
2023-04-02T14:59:59.727Z,2.40
2023-04-02T15:02:47.580Z,2.50
2023-04-02T15:05:21.354Z,3.60
2023-04-02T15:07:56.688Z,2.00
2023-04-02T15:10:34.698Z,2.10
2023-04-02T15:13:08.226Z,3.10
2023-04-02T15:15:46.958Z,2.70
2023-04-02T15:18:17.436Z,2.50
2023-04-02T15:21:20.083Z,2.30
2023-04-02T15:26:31.440Z,1.90
2023-04-02T15:29:25.850Z,3.60
2023-04-02T15:32:04.418Z,3.20
2023-04-02T15:34:39.254Z,1.90
2023-04-02T15:37:16.941Z,1.80
2023-04-02T15:40:07.005Z,1.80
2023-04-02T15:42:41.186Z,2.40
2023-04-02T15:45:12.189Z,2.50
2023-04-02T15:47:53.834Z,2.30
2023-04-02T15:50:46.431Z,1.90
2023-04-02T15:53:43.676Z,2.60
2023-04-02T15:56:39.189Z,2.50
2023-04-02T15:59:10.134Z,1.60
2023-04-02T16:02:10.426Z,1.70
2023-04-02T16:04:53.885Z,1.60
2023-04-02T16:07:25.147Z,2.90
2023-04-02T16:10:05.717Z,2.20
2023-04-02T16:12:37.045Z,2.40
2023-04-02T16:15:31.753Z,2.10
2023-04-02T16:18:18.447Z,2.30
2023-04-02T16:20:48.790Z,2.10
2023-04-02T16:23:22.678Z,2.70
2023-04-02T16:26:10.822Z,2.20
2023-04-02T16:29:16.370Z,3.50
2023-04-02T16:31:57.045Z,5.70
2023-04-02T16:35:05.027Z,3.30
2023-04-02T16:38:36.203Z,3.30
2023-04-02T16:41:18.060Z,2.80
2023-04-02T16:43:59.361Z,2.80
2023-04-02T16:46:46.137Z,4.80
2023-04-02T16:49:46.203Z,3.30
2023-04-02T16:52:39.588Z,3.90
2023-04-02T16:55:26.364Z,3.50
2023-04-02T16:58:20.142Z,3.90
2023-04-02T17:01:11.845Z,5.20
2023-04-02T17:03:58.633Z,4.20
2023-04-02T17:06:42.406Z,4.20
2023-04-02T17:09:33.014Z,3.90
2023-04-02T17:12:36.716Z,4.40
2023-04-02T17:15:32.542Z,3.70
2023-04-02T17:18:02.550Z,4.80
2023-04-02T17:20:31.333Z,3.10
2023-04-02T17:22:59.608Z,2.60
2023-04-02T17:25:34.108Z,2.20
2023-04-02T17:28:03.233Z,1.80
2023-04-02T17:30:31.311Z,2.50
2023-04-02T17:32:59.418Z,1.20
2023-04-02T17:35:53.598Z,3.40
2023-04-02T17:38:31.051Z,1.20
2023-04-02T17:41:02.101Z,1.50
2023-04-02T17:44:11.849Z,1.70
2023-04-02T17:47:05.404Z,3.60
2023-04-02T17:50:17.706Z,2.20
2023-04-02T17:52:57.333Z,2.80
2023-04-02T17:55:40.594Z,2.30
2023-04-02T17:58:46.328Z,1.10
2023-04-02T18:01:45.323Z,3.20
2023-04-02T18:04:32.243Z,0.80
2023-04-02T18:07:18.849Z,1.30
2023-04-02T18:09:55.734Z,1.90
2023-04-02T18:12:41.297Z,1.40
2023-04-02T18:15:09.283Z,0.70
2023-04-02T18:18:06.015Z,0.30
2023-04-02T18:20:46.697Z,0.90
2023-04-02T18:23:33.794Z,1.40
2023-04-02T18:26:13.855Z,4.00
2023-04-02T18:28:53.000Z,1.20
2023-04-02T18:31:56.175Z,1.70
2023-04-02T18:34:37.590Z,1.40
2023-04-02T18:37:09.114Z,1.30
2023-04-02T18:39:57.586Z,4.90
2023-04-02T18:42:53.675Z,2.00
2023-04-02T18:45:24.733Z,3.80
2023-04-02T18:48:14.303Z,2.20
2023-04-02T18:50:46.263Z,3.20
2023-04-02T18:53:18.127Z,4.30
2023-04-02T18:56:08.240Z,4.60
2023-04-02T18:58:52.864Z,6.00
2023-04-02T19:04:22.621Z,2.30
2023-04-02T19:07:01.722Z,2.60
2023-04-02T19:09:41.202Z,2.10
2023-04-02T19:12:23.647Z,2.20
2023-04-02T19:17:38.766Z,2.70
2023-04-02T19:20:25.975Z,3.80
2023-04-02T19:23:18.106Z,5.20
2023-04-02T19:26:05.104Z,3.60
2023-04-02T19:28:59.513Z,4.20
2023-04-02T19:31:48.952Z,5.30
2023-04-02T19:34:35.701Z,5.60
2023-04-02T19:37:15.712Z,4.60
2023-04-02T19:40:05.422Z,5.30
2023-04-02T19:42:43.680Z,4.10
2023-04-02T19:45:25.323Z,3.70
2023-04-02T19:47:54.244Z,4.20
2023-04-02T19:50:22.894Z,4.10
2023-04-02T19:52:51.245Z,4.50
2023-04-02T19:55:19.342Z,5.20
2023-04-02T19:57:47.416Z,9.80
2023-04-02T20:00:16.306Z,6.00
2023-04-02T20:02:44.505Z,4.80
2023-04-02T20:05:13.572Z,3.40
2023-04-02T20:07:41.643Z,2.90
2023-04-02T20:10:10.535Z,3.10
2023-04-02T20:12:38.474Z,4.80
2023-04-02T20:15:07.592Z,3.00
2023-04-02T20:17:35.795Z,1.70
2023-04-02T20:20:04.652Z,2.00
2023-04-02T20:22:32.633Z,2.10
2023-04-02T20:25:00.913Z,3.00
2023-04-02T20:27:28.971Z,1.40
2023-04-02T20:29:57.133Z,2.40
2023-04-02T20:32:25.371Z,3.80
2023-04-02T20:34:54.349Z,2.40
2023-04-02T20:37:22.754Z,1.50
2023-04-02T20:39:51.099Z,2.20
2023-04-02T20:42:19.541Z,2.70
2023-04-02T20:44:47.623Z,1.70
2023-04-02T20:47:16.519Z,1.30
2023-04-02T20:49:44.581Z,2.40
2023-04-02T20:52:12.547Z,2.20
2023-04-02T20:54:40.847Z,2.20
2023-04-02T20:57:09.161Z,2.90
2023-04-02T20:59:37.376Z,2.50
2023-04-02T21:02:05.657Z,2.30
2023-04-02T21:04:34.171Z,1.80
2023-04-02T21:07:02.203Z,2.60
2023-04-02T21:09:30.267Z,2.80
2023-04-02T21:11:58.261Z,3.20
2023-04-02T21:14:26.422Z,2.30
2023-04-02T21:16:54.495Z,2.30
2023-04-02T21:19:22.751Z,3.80
2023-04-02T21:21:51.150Z,1.80
2023-04-02T21:24:19.410Z,2.90
2023-04-02T21:26:47.709Z,2.30
2023-04-02T21:29:16.072Z,3.10
2023-04-02T21:31:44.229Z,3.00
2023-04-02T21:34:15.650Z,3.20
2023-04-02T21:36:46.050Z,2.50
2023-04-02T21:39:20.655Z,4.10
2023-04-02T21:41:50.941Z,5.00
2023-04-02T21:44:21.689Z,7.70
2023-04-02T21:46:51.922Z,4.90
2023-04-02T21:49:23.146Z,5.80
2023-04-02T21:51:52.180Z,5.00
2023-04-02T21:54:20.159Z,5.20
2023-04-02T21:56:48.646Z,4.50
2023-04-02T21:59:17.901Z,4.60
2023-04-02T22:01:49.097Z,6.50
2023-04-02T22:04:25.566Z,6.40
2023-04-02T22:06:54.208Z,7.30
2023-04-02T22:09:24.398Z,6.70
2023-04-02T22:11:55.328Z,4.20
2023-04-02T22:14:23.565Z,3.70
2023-04-02T22:16:52.296Z,6.20
2023-04-02T22:19:21.497Z,5.80
2023-04-02T22:21:49.895Z,7.10
2023-04-02T22:24:19.214Z,8.10
2023-04-02T22:26:47.257Z,7.00
2023-04-02T22:29:16.654Z,5.70
2023-04-02T22:31:44.828Z,6.90
2023-04-02T22:34:12.835Z,6.90
2023-04-02T22:36:41.379Z,8.50
2023-04-02T22:39:12.094Z,8.30
2023-04-02T22:41:40.489Z,10.20
2023-04-02T22:44:15.535Z,9.60
2023-04-02T22:46:43.795Z,8.70
2023-04-02T22:49:11.878Z,9.10
2023-04-02T22:51:40.244Z,9.20
2023-04-02T22:54:08.416Z,8.60
2023-04-02T22:56:37.758Z,9.20
2023-04-02T22:59:06.010Z,7.00
2023-04-02T23:01:36.101Z,5.90
2023-04-02T23:04:05.462Z,7.40
2023-04-02T23:06:33.576Z,9.10
2023-04-02T23:09:01.573Z,8.60
2023-04-02T23:11:29.723Z,8.40
2023-04-02T23:13:58.410Z,7.40
2023-04-02T23:16:29.032Z,9.20
2023-04-02T23:18:57.856Z,5.30
2023-04-02T23:21:26.534Z,6.30
2023-04-02T23:23:54.786Z,6.10
2023-04-02T23:26:27.246Z,4.00
2023-04-02T23:28:55.840Z,4.10
2023-04-02T23:31:25.304Z,6.50
2023-04-02T23:33:53.836Z,4.80
2023-04-02T23:36:23.608Z,4.60
2023-04-02T23:38:56.998Z,4.20
2023-04-02T23:41:27.198Z,4.80
2023-04-02T23:43:56.766Z,4.50
2023-04-02T23:46:26.010Z,6.70
2023-04-02T23:48:55.839Z,6.50
2023-04-02T23:51:24.792Z,6.40
2023-04-02T23:53:55.515Z,4.90
2023-04-02T23:56:24.688Z,4.00
2023-04-02T23:58:52.877Z,5.80
